Time;durP1;ratioP1;P1;durP2;ratioP2;P2;SDS_P1;SDS_P2;PMS_P1;PMS_P2;Temp;Humidity;BMP_temperature;BMP_pressure;BME280_temperature;BME280_humidity;BME280_pressure;Samples;Min_cycle;Max_cycle;Signal;HPM_P1;HPM_P2
2023/06/08 00:00:00;;;;;;;33.63;24.40;;;;;;;;;;5014090;28;20058;-84
2023/06/08 00:02:37;;;;;;;37.83;24.25;;;;;;;;;;5016763;28;20048;-83
2023/06/08 00:05:08;;;;;;;32.45;23.55;;;;;;;;;;5016308;28;20073;-83
2023/06/08 00:07:36;;;;;;;30.70;22.83;;;;;;;;;;5010527;28;20518;-85
2023/06/08 00:10:03;;;;;;;33.78;23.75;;;;;;;;;;5012805;28;20058;-85
2023/06/08 00:12:31;;;;;;;28.75;21.50;;;;;;;;;;5012064;28;20121;-84
2023/06/08 00:15:00;;;;;;;33.42;22.95;;;;;;;;;;5029430;28;20058;-84
2023/06/08 00:17:34;;;;;;;27.65;21.38;;;;;;;;;;5005468;28;20046;-83
2023/06/08 00:20:13;;;;;;;29.73;22.08;;;;;;;;;;5006833;28;20058;-83
2023/06/08 00:22:45;;;;;;;29.25;21.30;;;;;;;;;;5004952;28;20119;-84
2023/06/08 00:25:44;;;;;;;;;;;;;;;;;;;;;
2023/06/08 00:28:48;;;;;;;28.90;21.25;;;;;;;;;;5007501;28;20827;-82
2023/06/08 00:31:35;;;;;;;29.55;21.25;;;;;;;;;;4984064;28;20215;-84
2023/06/08 00:34:27;;;;;;;25.48;21.02;;;;;;;;;;5004199;28;20030;-85
2023/06/08 00:36:55;;;;;;;25.40;20.50;;;;;;;;;;5013784;28;20120;-84
2023/06/08 00:39:31;;;;;;;31.95;21.50;;;;;;;;;;5012617;28;20050;-84
2023/06/08 00:42:10;;;;;;;32.78;22.23;;;;;;;;;;5012296;28;20113;-84
2023/06/08 00:44:43;;;;;;;36.53;22.88;;;;;;;;;;5019634;28;20068;-83
2023/06/08 00:47:15;;;;;;;33.38;22.42;;;;;;;;;;5010902;28;20021;-84
2023/06/08 00:49:44;;;;;;;30.10;23.42;;;;;;;;;;5020691;28;20417;-85
2023/06/08 00:52:11;;;;;;;31.63;22.63;;;;;;;;;;5019570;28;20048;-84
2023/06/08 00:54:48;;;;;;;29.27;23.38;;;;;;;;;;4991523;28;20053;-84
2023/06/08 00:57:18;;;;;;;32.42;24.23;;;;;;;;;;4985484;28;20052;-84
2023/06/08 00:59:49;;;;;;;34.88;23.23;;;;;;;;;;5016516;28;20054;-83
2023/06/08 01:02:17;;;;;;;31.20;23.55;;;;;;;;;;5016305;28;20046;-83
2023/06/08 01:04:43;;;;;;;28.90;22.08;;;;;;;;;;5013558;28;20379;-83
2023/06/08 01:07:14;;;;;;;37.53;23.40;;;;;;;;;;4996622;28;20542;-84
2023/06/08 01:09:49;;;;;;;30.50;23.77;;;;;;;;;;4998003;28;20038;-83
2023/06/08 01:12:21;;;;;;;33.38;24.13;;;;;;;;;;5013993;28;20165;-84
2023/06/08 01:15:00;;;;;;;31.73;23.75;;;;;;;;;;5019645;28;20473;-85
2023/06/08 01:17:32;;;;;;;28.42;22.60;;;;;;;;;;5032744;28;20040;-84
2023/06/08 01:20:14;;;;;;;34.95;24.70;;;;;;;;;;5017250;28;20046;-84
2023/06/08 01:22:56;;;;;;;33.67;23.42;;;;;;;;;;5031543;28;20112;-83
2023/06/08 01:25:29;;;;;;;31.88;25.15;;;;;;;;;;5033942;28;20045;-84
2023/06/08 01:28:13;;;;;;;32.10;23.42;;;;;;;;;;5034987;28;20056;-83
2023/06/08 01:30:39;;;;;;;31.13;23.75;;;;;;;;;;5035090;28;20524;-85
2023/06/08 01:33:06;;;;;;;32.35;23.23;;;;;;;;;;5033643;28;20049;-85
2023/06/08 01:35:33;;;;;;;32.25;23.00;;;;;;;;;;4999578;28;20109;-84
2023/06/08 01:38:14;;;;;;;37.38;24.60;;;;;;;;;;5001213;28;20045;-85
2023/06/08 01:41:53;;;;;;;32.85;23.67;;;;;;;;;;4999192;28;20493;-83
2023/06/08 01:45:04;;;;;;;33.95;22.63;;;;;;;;;;4983662;28;20261;-85
2023/06/08 01:48:14;;;;;;;31.77;23.50;;;;;;;;;;4997466;28;20052;-84
2023/06/08 01:54:42;;;;;;;31.65;23.55;;;;;;;;;;4977611;28;20045;-85
2023/06/08 01:58:15;;;;;;;33.35;24.80;;;;;;;;;;4998404;28;20387;-87
2023/06/08 02:00:55;;;;;;;37.30;26.73;;;;;;;;;;4974409;28;20047;-84
2023/06/08 02:03:29;;;;;;;37.42;26.83;;;;;;;;;;4968420;28;20132;-84
2023/06/08 02:06:14;;;;;;;42.53;29.92;;;;;;;;;;4968063;28;20207;-85
2023/06/08 02:08:47;;;;;;;40.75;29.92;;;;;;;;;;4993958;28;20142;-84
2023/06/08 02:11:14;;;;;;;44.28;28.88;;;;;;;;;;4993713;28;20053;-84
2023/06/08 02:13:48;;;;;;;37.03;28.75;;;;;;;;;;4988386;28;20056;-84
2023/06/08 02:16:18;;;;;;;45.60;28.58;;;;;;;;;;4997190;28;20031;-84
2023/06/08 02:18:45;;;;;;;36.05;27.00;;;;;;;;;;5009607;28;20034;-84
2023/06/08 02:21:12;;;;;;;44.45;28.38;;;;;;;;;;5005962;28;20065;-84
2023/06/08 02:23:41;;;;;;;33.83;26.33;;;;;;;;;;4999492;28;20042;-84
2023/06/08 02:26:08;;;;;;;36.03;26.63;;;;;;;;;;4989818;28;20053;-85
2023/06/08 02:28:35;;;;;;;36.35;26.38;;;;;;;;;;4986859;28;20046;-84
2023/06/08 02:31:03;;;;;;;34.47;27.58;;;;;;;;;;4990630;28;20042;-85
2023/06/08 02:33:30;;;;;;;42.40;28.35;;;;;;;;;;4986825;28;20054;-84
2023/06/08 02:35:57;;;;;;;39.15;27.52;;;;;;;;;;4989073;28;20149;-83
2023/06/08 02:38:25;;;;;;;35.88;26.65;;;;;;;;;;5000395;28;20066;-85
2023/06/08 02:40:51;;;;;;;33.33;26.50;;;;;;;;;;5003201;28;20038;-84
2023/06/08 02:43:19;;;;;;;35.95;27.77;;;;;;;;;;4996048;28;20073;-85
2023/06/08 02:45:48;;;;;;;34.60;26.70;;;;;;;;;;4977249;28;20038;-85
2023/06/08 02:48:16;;;;;;;40.53;28.83;;;;;;;;;;4994595;28;20060;-84
2023/06/08 02:50:43;;;;;;;38.53;28.23;;;;;;;;;;4996133;28;20062;-85
2023/06/08 02:53:11;;;;;;;37.65;27.17;;;;;;;;;;5009884;28;20077;-85
2023/06/08 02:55:40;;;;;;;33.67;27.42;;;;;;;;;;5020621;28;20053;-85
2023/06/08 02:58:14;;;;;;;36.22;26.42;;;;;;;;;;5021572;28;20045;-86
2023/06/08 03:00:40;;;;;;;34.78;26.60;;;;;;;;;;5040534;28;20060;-85
2023/06/08 03:03:23;;;;;;;35.25;26.90;;;;;;;;;;5011049;28;20054;-84
2023/06/08 03:05:59;;;;;;;40.35;26.55;;;;;;;;;;5028044;28;20060;-83
2023/06/08 03:08:38;;;;;;;35.85;27.40;;;;;;;;;;5044190;28;20064;-84
2023/06/08 03:11:09;;;;;;;39.33;27.17;;;;;;;;;;5041262;28;20045;-84
2023/06/08 03:13:38;;;;;;;35.47;28.55;;;;;;;;;;5035387;28;20042;-84
2023/06/08 03:16:05;;;;;;;36.45;26.38;;;;;;;;;;5014123;28;20049;-85
2023/06/08 03:18:32;;;;;;;35.90;27.40;;;;;;;;;;5026286;28;20066;-85
2023/06/08 03:20:59;;;;;;;36.88;26.80;;;;;;;;;;5014806;28;20060;-84
2023/06/08 03:23:28;;;;;;;36.00;25.90;;;;;;;;;;5021391;28;20093;-85
2023/06/08 03:25:56;;;;;;;37.13;27.83;;;;;;;;;;5020228;28;20382;-86
2023/06/08 03:28:23;;;;;;;38.20;27.33;;;;;;;;;;5012891;28;20050;-86
2023/06/08 03:30:50;;;;;;;35.15;26.30;;;;;;;;;;5008362;28;20129;-84
2023/06/08 03:33:20;;;;;;;33.00;26.33;;;;;;;;;;4994756;28;20041;-84
2023/06/08 03:35:53;;;;;;;31.33;25.55;;;;;;;;;;5002957;28;20064;-84
2023/06/08 03:38:23;;;;;;;32.35;25.90;;;;;;;;;;5011271;28;20072;-84
2023/06/08 03:40:52;;;;;;;36.92;25.38;;;;;;;;;;5014627;28;20057;-84
2023/06/08 03:43:20;;;;;;;36.63;25.95;;;;;;;;;;5026882;28;20041;-83
2023/06/08 03:45:48;;;;;;;35.35;27.23;;;;;;;;;;5032947;28;20045;-83
2023/06/08 03:48:15;;;;;;;35.53;27.38;;;;;;;;;;5020508;28;20058;-85
2023/06/08 03:50:44;;;;;;;44.40;31.33;;;;;;;;;;5006127;28;20066;-85
2023/06/08 03:53:12;;;;;;;36.90;28.35;;;;;;;;;;5013834;28;20042;-86
2023/06/08 03:55:39;;;;;;;40.15;29.52;;;;;;;;;;5000303;28;20048;-84
2023/06/08 03:58:08;;;;;;;37.72;28.65;;;;;;;;;;5001864;28;20053;-84
2023/06/08 04:00:35;;;;;;;38.40;28.83;;;;;;;;;;5019015;28;20045;-84
2023/06/08 04:03:02;;;;;;;35.22;26.60;;;;;;;;;;5016687;28;20076;-84
2023/06/08 04:05:29;;;;;;;36.28;27.13;;;;;;;;;;5023362;28;20054;-86
2023/06/08 04:07:55;;;;;;;38.42;27.35;;;;;;;;;;5016287;28;20513;-86
2023/06/08 04:10:23;;;;;;;34.08;26.15;;;;;;;;;;5016254;28;20056;-84
2023/06/08 04:12:49;;;;;;;40.33;27.88;;;;;;;;;;5015748;28;20452;-85
2023/06/08 04:15:16;;;;;;;35.17;26.48;;;;;;;;;;5015795;28;20038;-85
2023/06/08 04:17:49;;;;;;;36.25;26.20;;;;;;;;;;5000652;28;20053;-85
2023/06/08 04:20:19;;;;;;;37.25;27.80;;;;;;;;;;5013399;28;20081;-86
2023/06/08 04:22:46;;;;;;;37.60;28.25;;;;;;;;;;5016359;28;20213;-86
2023/06/08 04:25:15;;;;;;;35.45;27.83;;;;;;;;;;5018935;28;20038;-87
2023/06/08 04:27:45;;;;;;;39.38;28.60;;;;;;;;;;5009340;28;20049;-87
2023/06/08 04:30:34;;;;;;;36.08;28.52;;;;;;;;;;5017443;28;20065;-84
2023/06/08 04:33:19;;;;;;;40.88;30.55;;;;;;;;;;5001723;28;20056;-85
2023/06/08 04:36:23;;;;;;;39.33;29.33;;;;;;;;;;5000614;28;20033;-86
2023/06/08 04:39:01;;;;;;;38.33;29.83;;;;;;;;;;4997933;28;20034;-86
2023/06/08 04:41:40;;;;;;;36.70;29.42;;;;;;;;;;4973989;28;20045;-86
2023/06/08 04:44:10;;;;;;;38.42;28.15;;;;;;;;;;4996048;28;20052;-86
2023/06/08 04:46:43;;;;;;;37.65;28.77;;;;;;;;;;4980395;28;20041;-86
2023/06/08 04:49:14;;;;;;;42.25;29.80;;;;;;;;;;5000228;28;20065;-86
2023/06/08 04:52:01;;;;;;;43.55;30.35;;;;;;;;;;4996236;28;20037;-86
2023/06/08 04:54:46;;;;;;;54.05;29.85;;;;;;;;;;4986035;28;20046;-85
2023/06/08 04:58:09;;;;;;;47.08;32.40;;;;;;;;;;4987153;28;20126;-87
2023/06/08 05:00:44;;;;;;;42.97;30.67;;;;;;;;;;4987883;28;20134;-85
2023/06/08 05:06:49;;;;;;;40.55;29.58;;;;;;;;;;4975628;28;20053;-85
2023/06/08 05:09:16;;;;;;;37.17;27.98;;;;;;;;;;4990673;28;20161;-84
2023/06/08 05:11:46;;;;;;;39.97;28.15;;;;;;;;;;5013775;28;20046;-82
2023/06/08 05:14:13;;;;;;;29.80;25.00;;;;;;;;;;5014270;28;20045;-85
2023/06/08 05:16:40;;;;;;;33.42;24.75;;;;;;;;;;5039639;28;20053;-84
2023/06/08 05:19:11;;;;;;;35.13;24.92;;;;;;;;;;5023247;28;20062;-86
2023/06/08 05:21:39;;;;;;;30.45;23.45;;;;;;;;;;5024763;28;20088;-83
2023/06/08 05:24:06;;;;;;;27.25;23.15;;;;;;;;;;5028394;28;20073;-84
2023/06/08 05:26:33;;;;;;;28.17;22.77;;;;;;;;;;5027542;28;20409;-85
2023/06/08 05:29:01;;;;;;;30.90;23.00;;;;;;;;;;5026654;28;20030;-85
2023/06/08 05:31:28;;;;;;;26.33;21.42;;;;;;;;;;5025683;28;20049;-84
2023/06/08 05:33:55;;;;;;;26.23;19.88;;;;;;;;;;5027680;28;20068;-85
2023/06/08 05:36:21;;;;;;;25.63;18.98;;;;;;;;;;5026072;28;20503;-85
2023/06/08 05:38:48;;;;;;;26.13;19.15;;;;;;;;;;5017227;28;20056;-83
2023/06/08 05:41:15;;;;;;;25.88;18.67;;;;;;;;;;5018806;28;20045;-83
2023/06/08 05:43:42;;;;;;;29.65;19.50;;;;;;;;;;5020776;28;20429;-83
2023/06/08 05:46:09;;;;;;;26.05;19.02;;;;;;;;;;5053528;28;20058;-83
2023/06/08 05:48:35;;;;;;;26.67;20.00;;;;;;;;;;5023976;28;20281;-84
2023/06/08 05:51:03;;;;;;;23.75;18.75;;;;;;;;;;5055888;28;20112;-85
2023/06/08 05:53:29;;;;;;;26.13;18.58;;;;;;;;;;5031831;28;20127;-84
2023/06/08 05:55:56;;;;;;;23.25;17.60;;;;;;;;;;5013277;28;20046;-84
2023/06/08 05:58:24;;;;;;;25.17;17.50;;;;;;;;;;5003164;28;20061;-86
2023/06/08 06:01:04;;;;;;;24.85;17.55;;;;;;;;;;5022093;28;20060;-86
2023/06/08 06:03:33;;;;;;;23.63;18.05;;;;;;;;;;5015698;28;20049;-86
2023/06/08 06:06:06;;;;;;;23.35;17.05;;;;;;;;;;5032147;28;20057;-85
2023/06/08 06:08:33;;;;;;;24.40;17.40;;;;;;;;;;5027858;28;20041;-83
2023/06/08 06:10:59;;;;;;;23.52;18.42;;;;;;;;;;5029257;28;20233;-84
2023/06/08 06:13:27;;;;;;;25.40;19.33;;;;;;;;;;5029760;28;20100;-84
2023/06/08 06:15:54;;;;;;;23.02;18.67;;;;;;;;;;5033247;28;20050;-85
2023/06/08 06:18:21;;;;;;;23.30;18.65;;;;;;;;;;5014339;28;20049;-83
2023/06/08 06:20:50;;;;;;;21.80;17.85;;;;;;;;;;5022348;28;20061;-84
2023/06/08 06:23:17;;;;;;;26.33;17.75;;;;;;;;;;5021219;28;20061;-84
2023/06/08 06:25:44;;;;;;;23.98;18.38;;;;;;;;;;5024345;28;20049;-84
2023/06/08 06:28:18;;;;;;;27.17;19.20;;;;;;;;;;5039962;28;20042;-84
2023/06/08 06:30:45;;;;;;;28.67;19.17;;;;;;;;;;5029550;28;20056;-85
2023/06/08 06:33:12;;;;;;;27.70;18.63;;;;;;;;;;5031515;28;20073;-86
2023/06/08 06:35:38;;;;;;;21.23;17.95;;;;;;;;;;5030490;28;20038;-86
2023/06/08 06:38:05;;;;;;;23.38;16.92;;;;;;;;;;5029886;28;20046;-86
2023/06/08 06:40:32;;;;;;;23.17;18.70;;;;;;;;;;5025391;28;20387;-85
2023/06/08 06:43:01;;;;;;;22.67;17.58;;;;;;;;;;5019652;28;20050;-84
2023/06/08 06:45:38;;;;;;;27.73;18.92;;;;;;;;;;5025225;28;20077;-85
2023/06/08 06:48:05;;;;;;;21.63;17.27;;;;;;;;;;5025696;28;20113;-85
2023/06/08 06:50:32;;;;;;;26.13;18.58;;;;;;;;;;5043756;28;20109;-86
2023/06/08 06:52:59;;;;;;;26.77;17.98;;;;;;;;;;5022133;28;20042;-86
2023/06/08 06:55:34;;;;;;;24.48;17.95;;;;;;;;;;5000548;28;20069;-87
2023/06/08 06:58:10;;;;;;;20.88;16.25;;;;;;;;;;5004915;28;20063;-86
2023/06/08 07:00:44;;;;;;;24.85;16.92;;;;;;;;;;4999493;28;20121;-87
2023/06/08 07:03:20;;;;;;;25.55;17.00;;;;;;;;;;5014829;28;20055;-85
2023/06/08 07:06:10;;;;;;;25.23;16.73;;;;;;;;;;5000245;28;20057;-88
2023/06/08 07:08:42;;;;;;;22.92;16.98;;;;;;;;;;4975900;28;20045;-87
2023/06/08 07:11:14;;;;;;;23.33;16.27;;;;;;;;;;5001721;28;20052;-86
2023/06/08 07:13:57;;;;;;;;;;;;;;;;;;;;;
2023/06/08 07:16:38;;;;;;;25.33;16.80;;;;;;;;;;4979014;28;20042;-87
2023/06/08 07:19:17;;;;;;;23.77;16.75;;;;;;;;;;4985358;28;20046;-86
2023/06/08 07:22:18;;;;;;;23.73;18.50;;;;;;;;;;4996797;28;20045;-85
2023/06/08 07:26:04;;;;;;;25.38;18.77;;;;;;;;;;4995325;28;20068;-87
2023/06/08 07:28:54;;;;;;;23.97;15.33;;;;;;;;;;4979175;28;20081;-85
2023/06/08 07:31:22;;;;;;;22.88;16.58;;;;;;;;;;4979309;28;20325;-87
2023/06/08 07:37:28;;;;;;;25.15;16.25;;;;;;;;;;4944574;28;20046;-87
2023/06/08 07:44:38;;;;;;;;;;;;;;;;;;;;;
2023/06/08 07:47:43;;;;;;;21.73;15.60;;;;;;;;;;4968934;28;20129;-87
2023/06/08 07:50:20;;;;;;;19.42;15.48;;;;;;;;;;4998527;28;20153;-87
2023/06/08 07:53:27;;;;;;;21.88;15.60;;;;;;;;;;4973009;28;20046;-86
2023/06/08 07:56:18;;;;;;;;;;;;;;;;;;;;;
2023/06/08 07:59:00;;;;;;;26.20;14.70;;;;;;;;;;4984715;28;20048;-86
2023/06/08 08:01:32;;;;;;;19.38;14.00;;;;;;;;;;4991380;28;20058;-84
2023/06/08 08:04:02;;;;;;;20.88;14.25;;;;;;;;;;5013479;28;20045;-88
2023/06/08 08:06:42;;;;;;;19.30;13.65;;;;;;;;;;5000379;28;20052;-86
2023/06/08 08:09:09;;;;;;;23.13;14.25;;;;;;;;;;4983130;28;20041;-86
2023/06/08 08:11:42;;;;;;;18.40;14.57;;;;;;;;;;4978272;28;20045;-87
2023/06/08 08:14:21;;;;;;;18.08;13.85;;;;;;;;;;5008984;28;20104;-85
2023/06/08 08:17:00;;;;;;;18.15;14.35;;;;;;;;;;5019868;28;20427;-85
2023/06/08 08:19:32;;;;;;;20.80;14.43;;;;;;;;;;4988025;28;20038;-85
2023/06/08 08:22:07;;;;;;;21.05;14.13;;;;;;;;;;5036860;28;20101;-87
2023/06/08 08:24:54;;;;;;;19.33;13.32;;;;;;;;;;5015930;28;20073;-87
2023/06/08 08:27:59;;;;;;;17.42;12.82;;;;;;;;;;5001299;28;20049;-86
2023/06/08 08:30:48;;;;;;;21.95;13.07;;;;;;;;;;5010021;28;20132;-86
2023/06/08 08:33:22;;;;;;;19.27;13.07;;;;;;;;;;4997614;28;20060;-87
2023/06/08 08:35:51;;;;;;;19.17;12.52;;;;;;;;;;4990570;28;20050;-85
2023/06/08 08:38:18;;;;;;;19.90;14.07;;;;;;;;;;5023820;28;20065;-85
2023/06/08 08:40:45;;;;;;;21.65;13.45;;;;;;;;;;5022130;28;20046;-86
2023/06/08 08:43:29;;;;;;;20.08;12.93;;;;;;;;;;5015917;28;20045;-85
2023/06/08 08:46:01;;;;;;;20.55;12.88;;;;;;;;;;4994375;28;20069;-85
2023/06/08 08:48:29;;;;;;;19.80;12.48;;;;;;;;;;5010195;28;20054;-87
2023/06/08 08:50:59;;;;;;;17.13;13.35;;;;;;;;;;5021984;28;20069;-85
2023/06/08 08:53:30;;;;;;;19.88;14.45;;;;;;;;;;4987710;28;20038;-86
2023/06/08 08:56:03;;;;;;;18.95;13.88;;;;;;;;;;5006584;28;20046;-85
2023/06/08 08:58:30;;;;;;;22.42;13.50;;;;;;;;;;4990119;28;20054;-85
2023/06/08 09:00:58;;;;;;;18.38;14.25;;;;;;;;;;4981450;28;20297;-83
2023/06/08 09:03:25;;;;;;;19.98;14.23;;;;;;;;;;5000069;28;20050;-84
2023/06/08 09:05:54;;;;;;;19.20;15.05;;;;;;;;;;4990650;28;20062;-86
2023/06/08 09:08:25;;;;;;;17.88;14.68;;;;;;;;;;5004009;28;20106;-85
2023/06/08 09:11:09;;;;;;;23.05;14.98;;;;;;;;;;5003465;28;20081;-86
2023/06/08 09:13:38;;;;;;;19.35;14.77;;;;;;;;;;5004565;28;20069;-86
2023/06/08 09:16:24;;;;;;;19.73;16.10;;;;;;;;;;4987404;28;20046;-87
2023/06/08 09:19:08;;;;;;;22.75;15.95;;;;;;;;;;4972592;28;20050;-86
2023/06/08 09:21:43;;;;;;;22.38;16.73;;;;;;;;;;5005031;28;20050;-85
2023/06/08 09:24:19;;;;;;;22.80;17.38;;;;;;;;;;5005551;28;20046;-87
2023/06/08 09:27:03;;;;;;;25.00;17.48;;;;;;;;;;5004019;28;20054;-86
2023/06/08 09:29:36;;;;;;;23.33;17.83;;;;;;;;;;4977310;28;20205;-85
2023/06/08 09:32:05;;;;;;;22.13;18.17;;;;;;;;;;5001154;28;20081;-84
2023/06/08 09:34:33;;;;;;;22.83;17.42;;;;;;;;;;5004020;28;20060;-84
2023/06/08 09:37:03;;;;;;;23.10;17.58;;;;;;;;;;5002600;28;20054;-84
2023/06/08 09:39:41;;;;;;;20.13;16.27;;;;;;;;;;4999039;28;20054;-84
2023/06/08 09:42:14;;;;;;;20.73;16.73;;;;;;;;;;4980527;28;20148;-86
2023/06/08 09:44:41;;;;;;;22.50;17.05;;;;;;;;;;4988565;28;20056;-83
2023/06/08 09:47:25;;;;;;;23.45;16.83;;;;;;;;;;5013787;28;20521;-82
2023/06/08 09:49:53;;;;;;;22.23;16.73;;;;;;;;;;5006756;28;20077;-84
2023/06/08 09:52:31;;;;;;;22.10;16.42;;;;;;;;;;5006164;28;20064;-85
2023/06/08 09:55:14;;;;;;;21.17;15.55;;;;;;;;;;5031213;28;20111;-84
2023/06/08 09:57:41;;;;;;;20.27;15.05;;;;;;;;;;5043333;28;20068;-83
2023/06/08 10:00:17;;;;;;;23.25;14.52;;;;;;;;;;5041224;28;20047;-84
2023/06/08 10:03:01;;;;;;;25.63;14.60;;;;;;;;;;5040242;28;20042;-84
2023/06/08 10:05:30;;;;;;;22.02;13.95;;;;;;;;;;5039689;28;20049;-85
2023/06/08 10:08:00;;;;;;;16.17;13.32;;;;;;;;;;5020904;28;20310;-85
2023/06/08 10:10:33;;;;;;;21.48;13.52;;;;;;;;;;5019320;28;20059;-90
2023/06/08 10:13:01;;;;;;;19.83;13.98;;;;;;;;;;5038661;28;20053;-85
2023/06/08 10:15:28;;;;;;;17.70;13.75;;;;;;;;;;5035167;28;20271;-85
2023/06/08 10:17:57;;;;;;;19.70;13.07;;;;;;;;;;5016530;28;20037;-86
2023/06/08 10:20:25;;;;;;;19.88;13.35;;;;;;;;;;5017912;28;20060;-84
2023/06/08 10:23:28;;;;;;;;;;;;;;;;;;;;;
2023/06/08 10:26:04;;;;;;;15.93;11.95;;;;;;;;;;5045347;28;20044;-86
2023/06/08 10:28:34;;;;;;;15.55;11.60;;;;;;;;;;5028217;28;20045;-84
2023/06/08 10:31:31;;;;;;;14.95;11.73;;;;;;;;;;4994259;28;20045;-86
2023/06/08 10:34:14;;;;;;;17.92;11.50;;;;;;;;;;5016800;28;20030;-84
2023/06/08 10:36:44;;;;;;;17.00;12.30;;;;;;;;;;5027957;28;20528;-82
2023/06/08 10:39:17;;;;;;;18.30;11.80;;;;;;;;;;5011736;28;20063;-88
2023/06/08 10:42:06;;;;;;;17.40;12.13;;;;;;;;;;5029079;28;20053;-87
2023/06/08 10:44:57;;;;;;;23.10;11.23;;;;;;;;;;4998086;28;20469;-85
2023/06/08 10:47:31;;;;;;;17.23;11.82;;;;;;;;;;5019447;28;20045;-88
2023/06/08 10:50:03;;;;;;;;;;;;;;;;;;5034993;28;20118;-86
2023/06/08 10:52:50;;;;;;;16.83;10.73;;;;;;;;;;5028587;28;19924;-84
2023/06/08 10:55:23;;;;;;;18.13;11.15;;;;;;;;;;5000873;28;20094;-85
2023/06/08 10:58:09;;;;;;;15.68;10.75;;;;;;;;;;5021179;28;20054;-85
2023/06/08 11:00:55;;;;;;;13.25;10.18;;;;;;;;;;5021166;28;20055;-87
2023/06/08 11:03:50;;;;;;;15.85;10.43;;;;;;;;;;5016394;28;20045;-87
2023/06/08 11:06:46;;;;;;;18.25;10.93;;;;;;;;;;5016701;28;20109;-88
2023/06/08 11:09:53;;;;;;;13.77;11.20;;;;;;;;;;5039400;28;20133;-85
2023/06/08 11:13:22;;;;;;;;;;;;;;;;;;;;;
2023/06/08 11:16:56;;;;;;;15.27;11.50;;;;;;;;;;5012187;28;20105;-87
2023/06/08 11:19:32;;;;;;;13.60;10.15;;;;;;;;;;4990387;28;20034;-83
2023/06/08 11:22:05;;;;;;;19.73;10.30;;;;;;;;;;5013291;28;20113;-88
2023/06/08 11:25:04;;;;;;;14.88;10.68;;;;;;;;;;5012946;28;20042;-85
2023/06/08 11:28:22;;;;;;;15.75;10.63;;;;;;;;;;5022404;28;20117;-88
2023/06/08 11:31:16;;;;;;;19.45;9.20;;;;;;;;;;5050974;28;20121;-84
2023/06/08 11:33:48;;;;;;;15.35;9.30;;;;;;;;;;5048073;28;20045;-87
2023/06/08 11:36:18;;;;;;;12.35;9.27;;;;;;;;;;5019320;28;20037;-87
2023/06/08 11:38:45;;;;;;;13.38;8.68;;;;;;;;;;5033574;28;20030;-86
2023/06/08 11:41:15;;;;;;;15.65;9.27;;;;;;;;;;5013121;28;20033;-86
2023/06/08 11:43:52;;;;;;;11.95;8.32;;;;;;;;;;5015857;28;20060;-86
2023/06/08 11:46:20;;;;;;;11.98;8.50;;;;;;;;;;5023373;28;20055;-85
2023/06/08 11:49:17;;;;;;;11.73;9.05;;;;;;;;;;5005459;28;20053;-85
2023/06/08 11:52:04;;;;;;;15.98;8.93;;;;;;;;;;5000366;28;20049;-84
2023/06/08 11:54:48;;;;;;;;;;;;;;;;;;;;;
2023/06/08 11:57:42;;;;;;;12.30;8.60;;;;;;;;;;4991371;28;20136;-85
2023/06/08 12:00:17;;;;;;;14.52;8.82;;;;;;;;;;5034086;28;20050;-83
2023/06/08 12:02:47;;;;;;;13.85;8.57;;;;;;;;;;5017667;28;20133;-85
2023/06/08 12:05:48;;;;;;;11.95;8.38;;;;;;;;;;5019348;28;20044;-84
2023/06/08 12:08:41;;;;;;;13.18;8.82;;;;;;;;;;5016776;28;20052;-85
2023/06/08 12:11:57;;;;;;;10.27;8.32;;;;;;;;;;5023833;28;20054;-84
2023/06/08 12:14:33;;;;;;;10.23;8.32;;;;;;;;;;5021598;28;20046;-83
2023/06/08 12:17:48;;;;;;;11.77;8.55;;;;;;;;;;5022648;28;20041;-84
2023/06/08 12:20:41;;;;;;;13.55;7.60;;;;;;;;;;5022259;28;20052;-85
2023/06/08 12:23:58;;;;;;;10.93;8.00;;;;;;;;;;5023937;28;20053;-85
2023/06/08 12:27:14;;;;;;;14.02;7.75;;;;;;;;;;5023468;28;20053;-83
2023/06/08 12:29:42;;;;;;;14.15;7.80;;;;;;;;;;5022455;28;20524;-86
2023/06/08 12:32:40;;;;;;;13.65;9.38;;;;;;;;;;5020360;28;20083;-83
2023/06/08 12:35:07;;;;;;;11.55;8.50;;;;;;;;;;5038350;28;20050;-85
2023/06/08 12:37:35;;;;;;;12.32;9.10;;;;;;;;;;5023508;28;20057;-84
2023/06/08 12:40:06;;;;;;;12.80;8.98;;;;;;;;;;5005488;28;20052;-84
2023/06/08 12:42:34;;;;;;;16.33;9.38;;;;;;;;;;4999275;28;20042;-84
2023/06/08 12:45:01;;;;;;;13.23;9.00;;;;;;;;;;5035685;28;20056;-83
2023/06/08 12:47:29;;;;;;;14.75;9.60;;;;;;;;;;5038024;28;20041;-83
2023/06/08 12:49:58;;;;;;;12.20;9.20;;;;;;;;;;5025018;28;20088;-85
2023/06/08 12:52:26;;;;;;;15.80;9.40;;;;;;;;;;4997950;28;20440;-83
2023/06/08 12:55:22;;;;;;;16.70;8.75;;;;;;;;;;5027408;28;20091;-82
2023/06/08 12:57:54;;;;;;;13.48;9.38;;;;;;;;;;5022552;28;20062;-83
2023/06/08 13:00:59;;;;;;;11.48;7.90;;;;;;;;;;5001623;28;20181;-84
2023/06/08 13:04:14;;;;;;;12.27;8.45;;;;;;;;;;5017609;28;20053;-86
2023/06/08 13:07:31;;;;;;;12.43;8.30;;;;;;;;;;5022193;28;20060;-85
2023/06/08 13:10:22;;;;;;;12.68;9.00;;;;;;;;;;5018177;28;20052;-86
2023/06/08 13:13:39;;;;;;;15.10;9.07;;;;;;;;;;5013387;28;20051;-85
2023/06/08 13:16:06;;;;;;;12.77;8.15;;;;;;;;;;5035300;28;20049;-88
2023/06/08 13:18:36;;;;;;;12.63;8.73;;;;;;;;;;5025297;28;20469;-83
2023/06/08 13:21:05;;;;;;;11.98;9.13;;;;;;;;;;5016638;28;20046;-85
2023/06/08 13:23:32;;;;;;;15.18;9.52;;;;;;;;;;5008328;28;20058;-84
2023/06/08 13:26:28;;;;;;;16.75;9.30;;;;;;;;;;5004823;28;20050;-86
2023/06/08 13:29:30;;;;;;;16.05;9.10;;;;;;;;;;5004698;28;20032;-85
2023/06/08 13:32:01;;;;;;;13.18;8.07;;;;;;;;;;5006144;28;20297;-86
2023/06/08 13:34:55;;;;;;;13.95;7.85;;;;;;;;;;4993784;28;20034;-83
2023/06/08 13:37:22;;;;;;;11.13;7.00;;;;;;;;;;4978030;28;20042;-84
2023/06/08 13:39:50;;;;;;;15.90;7.72;;;;;;;;;;4974839;28;20073;-76
2023/06/08 13:42:47;;;;;;;10.60;7.70;;;;;;;;;;4996418;28;20499;-78
2023/06/08 13:45:20;;;;;;;13.68;7.47;;;;;;;;;;5005574;28;20045;-77
2023/06/08 13:48:12;;;;;;;14.80;7.85;;;;;;;;;;5011853;28;20107;-77
2023/06/08 13:51:14;;;;;;;11.73;8.30;;;;;;;;;;4996513;28;20302;-76
2023/06/08 13:54:30;;;;;;;14.30;8.00;;;;;;;;;;5000563;28;20053;-76
2023/06/08 13:56:57;;;;;;;8.80;6.97;;;;;;;;;;5013282;28;20449;-78
2023/06/08 13:59:24;;;;;;;8.55;6.90;;;;;;;;;;4997412;28;20041;-77
2023/06/08 14:01:52;;;;;;;11.75;7.07;;;;;;;;;;5020525;28;20096;-78
2023/06/08 14:04:19;;;;;;;14.25;7.13;;;;;;;;;;5016433;28;20057;-77
2023/06/08 14:06:50;;;;;;;9.63;7.15;;;;;;;;;;5013622;28;20132;-77
2023/06/08 14:09:45;;;;;;;10.75;7.03;;;;;;;;;;4997578;28;20034;-74
2023/06/08 14:12:38;;;;;;;8.48;4.30;;;;;;;;;;5026308;28;20044;-77
2023/06/08 14:15:08;;;;;;;7.22;4.43;;;;;;;;;;5034662;28;20056;-83
2023/06/08 14:17:35;;;;;;;13.50;4.22;;;;;;;;;;5027468;28;20042;-85
2023/06/08 14:20:12;;;;;;;7.53;4.35;;;;;;;;;;5016929;28;20041;-88
2023/06/08 14:22:46;;;;;;;8.98;4.38;;;;;;;;;;5003731;28;20037;-87
2023/06/08 14:25:19;;;;;;;;;;;;;;;;;;4985842;28;20046;-83
2023/06/08 14:27:58;;;;;;;9.02;4.25;;;;;;;;;;5036427;28;19925;-85
2023/06/08 14:30:36;;;;;;;7.75;4.45;;;;;;;;;;5009138;28;20133;-86
2023/06/08 14:33:03;;;;;;;11.85;4.68;;;;;;;;;;5014532;28;20050;-84
2023/06/08 14:35:32;;;;;;;15.25;5.13;;;;;;;;;;5004401;28;20043;-84
2023/06/08 14:38:05;;;;;;;13.95;5.15;;;;;;;;;;5007967;28;20026;-84
2023/06/08 14:40:39;;;;;;;;;;;;;;;;;;5013006;28;20064;-85
2023/06/08 14:43:07;;;;;;;12.95;5.65;;;;;;;;;;5032004;28;20360;-85
2023/06/08 14:45:46;;;;;;;11.88;5.43;;;;;;;;;;5036589;28;20037;-85
2023/06/08 14:48:16;;;;;;;10.18;5.57;;;;;;;;;;5010343;28;20068;-85
2023/06/08 14:51:16;;;;;;;10.73;5.90;;;;;;;;;;5027065;28;20034;-84
2023/06/08 14:54:08;;;;;;;12.93;5.43;;;;;;;;;;5007165;28;20057;-84
2023/06/08 14:56:36;;;;;;;16.77;5.70;;;;;;;;;;5016531;28;20037;-83
2023/06/08 14:59:03;;;;;;;9.55;5.75;;;;;;;;;;5019427;28;20066;-85
2023/06/08 15:01:48;;;;;;;12.65;6.00;;;;;;;;;;4990261;28;20069;-83
2023/06/08 15:04:15;;;;;;;9.50;5.95;;;;;;;;;;5005219;28;20057;-83
2023/06/08 15:07:02;;;;;;;8.48;5.30;;;;;;;;;;4985238;28;20113;-85
2023/06/08 15:09:37;;;;;;;11.73;5.43;;;;;;;;;;5007294;28;20048;-85
2023/06/08 15:12:12;;;;;;;12.55;4.95;;;;;;;;;;5021469;28;20075;-85
2023/06/08 15:15:03;;;;;;;12.32;5.43;;;;;;;;;;5017855;28;20068;-85
2023/06/08 15:17:38;;;;;;;11.77;5.43;;;;;;;;;;5025374;28;20040;-84
2023/06/08 15:20:06;;;;;;;8.95;5.38;;;;;;;;;;5017413;28;20030;-84
2023/06/08 15:22:39;;;;;;;7.30;4.97;;;;;;;;;;5024441;28;20069;-84
2023/06/08 15:25:08;;;;;;;9.52;5.43;;;;;;;;;;5015570;28;20061;-83
2023/06/08 15:27:34;;;;;;;8.70;5.95;;;;;;;;;;5003200;28;20081;-86
2023/06/08 15:30:07;;;;;;;10.60;5.40;;;;;;;;;;4985057;28;20037;-85
2023/06/08 15:32:39;;;;;;;9.65;5.15;;;;;;;;;;5005403;28;20046;-83
2023/06/08 15:35:09;;;;;;;15.32;5.55;;;;;;;;;;5008940;28;20041;-85
2023/06/08 15:37:36;;;;;;;10.00;5.40;;;;;;;;;;5022587;28;20030;-84
2023/06/08 15:45:06;;;;;;;;;;;;;;;;;;;;;
2023/06/08 16:00:21;;;;;;;12.05;4.85;;;;;;;;;;4804770;29;20072;-84